Time;durP1;ratioP1;P1;durP2;ratioP2;P2;SDS_P1;SDS_P2;PMS_P1;PMS_P2;Temp;Humidity;BMP_temperature;BMP_pressure;BME280_temperature;BME280_humidity;BME280_pressure;Samples;Min_cycle;Max_cycle;Signal;HPM_P1;HPM_P2
2022/09/29 00:00:47;;;;;;;28.25;6.30;;;;;;;15.67;100.00;97413.66;5076242;28;20048;-94
2022/09/29 00:03:15;;;;;;;22.92;6.20;;;;;;;15.70;100.00;97412.56;5075800;28;20537;-93
2022/09/29 00:05:46;;;;;;;25.35;7.05;;;;;;;15.77;100.00;97422.81;5075221;28;20154;-92
2022/09/29 00:08:12;;;;;;;27.58;7.85;;;;;;;15.78;100.00;97423.66;5075466;28;20040;-95
2022/09/29 00:10:39;;;;;;;20.63;5.70;;;;;;;15.82;100.00;97438.56;5076052;28;20098;-93
2022/09/29 00:13:04;;;;;;;18.77;5.75;;;;;;;15.86;100.00;97431.19;5075661;28;20049;-93
2022/09/29 00:15:30;;;;;;;30.33;6.03;;;;;;;15.72;100.00;97408.00;5075668;28;20474;-94
2022/09/29 00:17:56;;;;;;;24.00;5.55;;;;;;;15.71;100.00;97409.81;5077457;28;20087;-91
2022/09/29 00:20:23;;;;;;;22.13;6.45;;;;;;;15.80;100.00;97422.56;5077271;28;20520;-92
2022/09/29 00:22:50;;;;;;;22.52;5.75;;;;;;;15.72;100.00;97406.19;5075617;28;20044;-93
2022/09/29 00:25:16;;;;;;;31.25;6.07;;;;;;;15.95;100.00;97436.72;5075454;28;20039;-93
2022/09/29 00:27:43;;;;;;;22.67;6.63;;;;;;;15.94;100.00;97437.72;5075260;28;20048;-93
2022/09/29 00:30:09;;;;;;;28.92;6.88;;;;;;;15.89;100.00;97425.59;5075255;28;20040;-93
2022/09/29 00:32:35;;;;;;;28.95;6.90;;;;;;;15.87;100.00;97425.69;5075553;28;20134;-93
2022/09/29 00:35:01;;;;;;;23.52;6.00;;;;;;;15.81;100.00;97415.41;5075300;28;20059;-92
2022/09/29 00:37:28;;;;;;;27.77;5.68;;;;;;;15.93;100.00;97429.78;5074358;28;20078;-94
2022/09/29 00:39:54;;;;;;;19.98;5.57;;;;;;;15.94;100.00;97429.66;5075437;28;20048;-92
2022/09/29 00:42:20;;;;;;;26.75;6.78;;;;;;;15.71;100.00;97390.19;5075694;28;20552;-92
2022/09/29 00:44:59;;;;;;;30.73;5.25;;;;;;;15.85;100.00;97416.88;5074958;28;20521;-92
2022/09/29 00:47:26;;;;;;;37.47;7.20;;;;;;;15.73;100.00;97407.03;5074918;28;20037;-93
2022/09/29 00:49:58;;;;;;;34.00;6.18;;;;;;;15.79;100.00;97420.03;5075336;28;20044;-92
2022/09/29 00:52:28;;;;;;;26.33;6.20;;;;;;;15.80;100.00;97425.25;5075583;28;20040;-93
2022/09/29 00:55:01;;;;;;;30.30;5.82;;;;;;;15.75;100.00;97414.00;5074295;28;20041;-91
2022/09/29 00:57:30;;;;;;;20.30;6.68;;;;;;;15.81;100.00;97421.63;5073443;28;20128;-93
2022/09/29 01:00:03;;;;;;;26.63;6.53;;;;;;;15.88;100.00;97429.25;5076141;28;20048;-92
2022/09/29 01:02:32;;;;;;;25.55;6.47;;;;;;;15.84;100.00;97422.38;5076281;28;20094;-93
2022/09/29 01:04:59;;;;;;;26.42;6.70;;;;;;;15.81;100.00;97413.59;5074282;28;20064;-92
2022/09/29 01:07:26;;;;;;;29.90;6.28;;;;;;;15.71;100.00;97392.88;5073814;28;20036;-93
2022/09/29 01:09:55;;;;;;;20.02;6.38;;;;;;;15.87;100.00;97414.09;5074092;28;20127;-92
2022/09/29 01:12:23;;;;;;;24.35;6.57;;;;;;;15.75;100.00;97400.59;5076815;28;20048;-92
2022/09/29 01:14:49;;;;;;;21.58;6.68;;;;;;;15.84;100.00;97414.34;5076143;28;20039;-92
2022/09/29 01:17:16;;;;;;;23.13;5.43;;;;;;;15.65;100.00;97374.53;5077709;28;20559;-94
2022/09/29 01:19:50;;;;;;;19.85;5.82;;;;;;;15.78;100.00;97391.50;5078334;28;20127;-91
2022/09/29 01:22:34;;;;;;;24.17;5.88;;;;;;;15.68;100.00;97372.50;5077764;28;20090;-92
2022/09/29 01:25:16;;;;;;;26.52;6.00;;;;;;;15.76;100.00;97380.88;5077883;28;20029;-92
2022/09/29 01:28:10;;;;;;;26.42;6.20;;;;;;;15.62;100.00;97356.84;5079789;28;20110;-92
2022/09/29 01:31:06;;;;;;;23.63;5.45;;;;;;;15.78;100.00;97380.78;5078497;28;20040;-91
2022/09/29 01:33:39;;;;;;;28.73;6.97;;;;;;;15.79;100.00;97386.03;5072578;28;20409;-91
2022/09/29 01:36:14;;;;;;;21.42;5.85;;;;;;;15.74;100.00;97374.78;5071430;28;20039;-91
2022/09/29 01:38:53;;;;;;;33.47;6.88;;;;;;;15.74;100.00;97364.06;5079547;28;20056;-92
2022/09/29 01:41:28;;;;;;;29.30;6.15;;;;;;;15.71;100.00;97350.88;5079458;28;20040;-92
2022/09/29 01:44:01;;;;;;;29.50;6.57;;;;;;;15.53;100.00;97331.56;5077539;28;20066;-92
2022/09/29 01:46:32;;;;;;;17.67;6.22;;;;;;;15.72;100.00;97366.00;5077798;28;20036;-93
2022/09/29 01:49:01;;;;;;;24.95;6.70;;;;;;;15.46;100.00;97332.97;5079712;28;20047;-92
2022/09/29 01:51:31;;;;;;;46.88;8.80;;;;;;;15.56;100.00;97347.41;5079968;28;20125;-92
2022/09/29 01:54:03;;;;;;;24.58;6.18;;;;;;;15.56;100.00;97354.59;5074595;28;20036;-92
2022/09/29 01:56:35;;;;;;;34.45;6.32;;;;;;;15.60;100.00;97356.09;5078206;28;20389;-91
2022/09/29 01:59:07;;;;;;;21.05;5.55;;;;;;;15.52;100.00;97326.28;5077647;28;20448;-90
2022/09/29 02:01:40;;;;;;;25.92;6.85;;;;;;;15.70;100.00;97345.56;5076120;28;20051;-94
2022/09/29 02:04:13;;;;;;;29.70;6.43;;;;;;;15.62;100.00;97316.66;5077161;28;20482;-93
2022/09/29 02:06:44;;;;;;;24.20;6.13;;;;;;;15.67;100.00;97319.84;5077160;28;20143;-91
2022/09/29 02:09:15;;;;;;;22.83;6.75;;;;;;;15.67;100.00;97324.38;5078383;28;20059;-91
2022/09/29 02:11:42;;;;;;;27.90;6.15;;;;;;;15.76;100.00;97332.63;5076031;28;20127;-93
2022/09/29 02:14:14;;;;;;;19.05;5.45;;;;;;;15.85;100.00;97357.91;5076934;28;20056;-93
2022/09/29 02:16:47;;;;;;;26.85;6.82;;;;;;;15.89;100.00;97369.28;5076720;28;20393;-93
2022/09/29 02:19:15;;;;;;;25.20;6.03;;;;;;;15.81;100.00;97351.94;5079528;28;20033;-94
2022/09/29 02:21:42;;;;;;;21.60;6.30;;;;;;;15.83;100.00;97346.47;5078550;28;20047;-92
2022/09/29 02:24:09;;;;;;;24.75;6.10;;;;;;;15.88;100.00;97356.88;5076711;28;20390;-90
2022/09/29 02:26:35;;;;;;;26.88;5.85;;;;;;;15.96;100.00;97373.25;5076192;28;20041;-90
2022/09/29 02:29:03;;;;;;;28.45;5.90;;;;;;;15.78;100.00;97333.38;5076090;28;20043;-93
2022/09/29 02:31:29;;;;;;;23.40;5.60;;;;;;;15.83;100.00;97338.44;5077828;28;20074;-93
2022/09/29 02:33:57;;;;;;;24.63;5.70;;;;;;;15.95;100.00;97336.69;5078085;28;20035;-90
2022/09/29 02:36:32;;;;;;;18.02;5.45;;;;;;;15.94;100.00;97327.78;5076209;28;20514;-92
2022/09/29 02:39:02;;;;;;;28.80;5.47;;;;;;;15.90;100.00;97318.25;5076176;28;20518;-92
2022/09/29 02:41:42;;;;;;;20.65;5.80;;;;;;;16.08;100.00;97347.38;5077486;28;20040;-92
2022/09/29 02:44:32;;;;;;;14.52;5.38;;;;;;;16.01;100.00;97344.28;5077316;28;20106;-92
2022/09/29 02:47:23;;;;;;;26.48;5.63;;;;;;;16.02;100.00;97341.47;5076364;28;20078;-92
2022/09/29 02:50:08;;;;;;;18.88;5.30;;;;;;;16.11;100.00;97355.19;5075340;28;20498;-93
2022/09/29 02:52:44;;;;;;;34.22;7.05;;;;;;;16.01;100.00;97341.63;5075571;28;20041;-89
2022/09/29 02:55:17;;;;;;;23.63;4.78;;;;;;;15.94;100.00;97333.16;5075315;28;20060;-92
2022/09/29 02:57:50;;;;;;;28.08;6.45;;;;;;;16.03;100.00;97358.44;5075518;28;20123;-92
2022/09/29 03:00:18;;;;;;;21.65;6.00;;;;;;;15.94;100.00;97340.31;5075120;28;20055;-92
2022/09/29 03:02:44;;;;;;;18.30;5.38;;;;;;;16.08;100.00;97356.28;5076412;28;20041;-92
2022/09/29 03:05:14;;;;;;;21.50;5.47;;;;;;;15.96;100.00;97343.75;5076503;28;20440;-92
2022/09/29 03:07:40;;;;;;;29.52;5.93;;;;;;;16.14;100.00;97379.97;5076585;28;20040;-94
2022/09/29 03:10:08;;;;;;;27.98;5.20;;;;;;;16.13;100.00;97366.69;5077070;28;20498;-92
2022/09/29 03:12:34;;;;;;;18.38;5.05;;;;;;;16.13;100.00;97372.03;5077328;28;20040;-92
2022/09/29 03:15:00;;;;;;;26.02;5.50;;;;;;;16.02;100.00;97346.00;5076857;28;20045;-91
2022/09/29 03:17:26;;;;;;;27.50;6.03;;;;;;;16.08;100.00;97348.25;5078138;28;20098;-92
2022/09/29 03:19:52;;;;;;;27.77;5.80;;;;;;;15.99;100.00;97336.34;5079218;28;20040;-95
2022/09/29 03:22:19;;;;;;;22.20;6.25;;;;;;;15.99;100.00;97349.75;5076800;28;20414;-93
2022/09/29 03:24:45;;;;;;;26.50;6.22;;;;;;;16.06;100.00;97357.38;5076501;28;20094;-90
2022/09/29 03:27:11;;;;;;;24.30;6.63;;;;;;;16.01;100.00;97345.16;5077136;28;20036;-93
2022/09/29 03:29:37;;;;;;;23.80;5.88;;;;;;;16.01;100.00;97346.97;5078272;28;20075;-95
2022/09/29 03:32:04;;;;;;;21.88;5.95;;;;;;;15.88;100.00;97330.91;5078228;28;20468;-93
2022/09/29 03:34:30;;;;;;;24.63;6.47;;;;;;;15.97;100.00;97361.56;5076938;28;20075;-91
2022/09/29 03:36:56;;;;;;;27.85;5.72;;;;;;;15.89;100.00;97355.88;5076261;28;20043;-92
2022/09/29 03:39:24;;;;;;;22.50;5.20;;;;;;;15.79;100.00;97353.03;5075835;28;20093;-92
2022/09/29 03:41:50;;;;;;;24.73;5.38;;;;;;;15.78;100.00;97357.50;5076117;28;20551;-90
2022/09/29 03:44:17;;;;;;;26.08;6.38;;;;;;;15.75;100.00;97360.41;5075999;28;20044;-92
2022/09/29 03:46:43;;;;;;;29.20;5.70;;;;;;;15.74;100.00;97366.75;5076070;28;20493;-92
2022/09/29 03:49:09;;;;;;;24.02;6.13;;;;;;;15.83;100.00;97381.31;5076574;28;20045;-92
2022/09/29 03:51:34;;;;;;;29.90;6.03;;;;;;;15.77;100.00;97371.03;5076329;28;20059;-92
2022/09/29 03:54:00;;;;;;;20.55;5.13;;;;;;;15.77;100.00;97365.66;5076171;28;20127;-94
2022/09/29 03:56:27;;;;;;;26.13;6.55;;;;;;;15.66;100.00;97350.31;5076240;28;20394;-91
2022/09/29 03:58:53;;;;;;;16.08;5.15;;;;;;;15.58;100.00;97347.31;5076240;28;20040;-94
2022/09/29 04:01:20;;;;;;;21.50;5.00;;;;;;;15.45;100.00;97341.09;5075976;28;20047;-93
2022/09/29 04:03:46;;;;;;;24.02;5.43;;;;;;;15.41;100.00;97340.44;5076129;28;20174;-92
2022/09/29 04:06:12;;;;;;;18.52;6.00;;;;;;;15.38;100.00;97352.22;5076293;28;20044;-93
2022/09/29 04:08:38;;;;;;;29.17;5.25;;;;;;;15.43;100.00;97362.63;5075886;28;20071;-93
2022/09/29 04:11:04;;;;;;;17.52;4.43;;;;;;;15.27;100.00;97335.19;5077794;28;20029;-94
2022/09/29 04:13:32;;;;;;;22.33;4.80;;;;;;;15.17;100.00;97327.78;5077444;28;20124;-93
2022/09/29 04:15:58;;;;;;;13.70;4.78;;;;;;;15.08;100.00;97323.06;5075543;28;20037;-93
2022/09/29 04:18:24;;;;;;;24.67;6.05;;;;;;;15.08;100.00;97328.41;5075326;28;20045;-92
2022/09/29 04:20:50;;;;;;;17.33;4.43;;;;;;;15.13;100.00;97358.41;5074793;28;20047;-89
2022/09/29 04:23:16;;;;;;;21.40;4.78;;;;;;;15.09;100.00;97364.06;5075306;28;20040;-92
2022/09/29 04:25:44;;;;;;;21.30;4.75;;;;;;;15.03;100.00;97364.47;5076221;28;20566;-92
2022/09/29 04:28:10;;;;;;;18.33;5.25;;;;;;;14.95;100.00;97359.66;5075086;28;20040;-92
2022/09/29 04:30:37;;;;;;;21.55;6.10;;;;;;;14.89;100.00;97349.38;5076065;28;20516;-91
2022/09/29 04:33:03;;;;;;;15.10;4.13;;;;;;;15.04;100.00;97387.63;5077898;28;20475;-91
2022/09/29 04:35:29;;;;;;;15.25;5.35;;;;;;;15.02;100.00;97398.44;5076964;28;20051;-92
2022/09/29 04:37:56;;;;;;;12.48;4.25;;;;;;;14.79;100.00;97366.03;5075830;28;20116;-92
2022/09/29 04:40:22;;;;;;;12.90;4.07;;;;;;;14.85;100.00;97375.47;5075846;28;20076;-93
2022/09/29 04:42:48;;;;;;;17.20;4.65;;;;;;;14.85;100.00;97379.97;5075812;28;20509;-91
2022/09/29 04:45:14;;;;;;;10.48;3.55;;;;;;;14.72;100.00;97364.72;5075203;28;20121;-92
2022/09/29 04:47:41;;;;;;;12.43;4.22;;;;;;;14.85;100.00;97396.88;5075831;28;20072;-92
2022/09/29 04:50:08;;;;;;;13.93;3.92;;;;;;;14.90;100.00;97393.91;5075530;28;20036;-92
2022/09/29 04:52:34;;;;;;;11.52;3.50;;;;;;;15.04;100.00;97401.00;5077138;28;20049;-92
2022/09/29 04:55:01;;;;;;;17.35;3.85;;;;;;;14.96;100.00;97377.41;5075762;28;20044;-92
2022/09/29 04:57:27;;;;;;;11.15;3.53;;;;;;;15.04;100.00;97379.59;5075555;28;20043;-92
2022/09/29 04:59:53;;;;;;;10.43;3.53;;;;;;;15.06;100.00;97377.69;5071207;28;20129;-94
2022/09/29 05:02:19;;;;;;;13.23;3.50;;;;;;;14.93;100.00;97364.25;5074732;28;20093;-92
2022/09/29 05:04:46;;;;;;;10.30;3.30;;;;;;;14.99;100.00;97364.69;5075004;28;20040;-94
2022/09/29 05:07:15;;;;;;;9.25;3.45;;;;;;;15.04;100.00;97388.47;5075690;28;20374;-94
2022/09/29 05:09:41;;;;;;;11.48;3.53;;;;;;;15.07;100.00;97396.31;5075876;28;20040;-91
2022/09/29 05:12:06;;;;;;;18.67;3.70;;;;;;;15.11;100.00;97403.16;5075528;28;20078;-93
2022/09/29 05:14:33;;;;;;;12.20;3.42;;;;;;;14.98;100.00;97380.84;5075473;28;20124;-95
2022/09/29 05:16:59;;;;;;;18.05;3.85;;;;;;;15.07;100.00;97384.72;5075628;28;20052;-93
2022/09/29 05:19:25;;;;;;;17.77;4.10;;;;;;;15.17;100.00;97377.81;5075289;28;20105;-93
2022/09/29 05:21:52;;;;;;;18.25;4.20;;;;;;;15.08;100.00;97363.22;5075422;28;20067;-94
2022/09/29 05:24:18;;;;;;;14.88;4.10;;;;;;;15.21;100.00;97382.00;5075873;28;20049;-94
2022/09/29 05:26:44;;;;;;;15.88;4.80;;;;;;;15.30;100.00;97380.50;5075691;28;20490;-94
2022/09/29 05:29:10;;;;;;;15.25;4.82;;;;;;;15.33;100.00;97364.22;5075094;28;20048;-93
2022/09/29 05:31:36;;;;;;;16.70;4.60;;;;;;;15.58;100.00;97407.09;5074547;28;20060;-93
2022/09/29 05:34:02;;;;;;;27.30;4.85;;;;;;;15.49;100.00;97382.78;5075839;28;20037;-92
2022/09/29 05:36:28;;;;;;;15.98;4.68;;;;;;;15.56;100.00;97398.31;5074739;28;20036;-94
2022/09/29 05:38:55;;;;;;;21.50;5.43;;;;;;;15.52;100.00;97391.44;5081202;28;20567;-93
2022/09/29 05:41:22;;;;;;;20.10;4.30;;;;;;;15.48;100.00;97367.66;5079623;28;20033;-93
2022/09/29 05:43:49;;;;;;;19.88;4.28;;;;;;;15.61;100.00;97381.91;5080427;28;20490;-94
2022/09/29 05:46:16;;;;;;;17.40;4.95;;;;;;;15.57;100.00;97369.69;5081073;28;20040;-93
2022/09/29 05:48:42;;;;;;;18.00;4.97;;;;;;;15.61;100.00;97381.91;5081393;28;20080;-93
2022/09/29 05:51:12;;;;;;;19.98;4.40;;;;;;;15.80;100.00;97411.84;5081682;28;20059;-93
2022/09/29 05:53:38;;;;;;;18.08;4.50;;;;;;;15.62;100.00;97364.88;5085207;28;20165;-94
2022/09/29 05:56:07;;;;;;;19.30;5.00;;;;;;;15.69;100.00;97355.44;5083527;28;20470;-95
2022/09/29 05:58:33;;;;;;;23.73;5.22;;;;;;;15.77;100.00;97354.94;5081857;28;20151;-95
2022/09/29 06:01:05;;;;;;;20.45;6.20;;;;;;;15.88;100.00;97349.69;5082057;28;20486;-94
2022/09/29 06:03:32;;;;;;;23.60;5.68;;;;;;;15.97;100.00;97337.44;5085752;28;20052;-94
2022/09/29 06:06:03;;;;;;;18.77;4.80;;;;;;;16.03;100.00;97345.03;5085712;28;20045;-95
2022/09/29 06:08:29;;;;;;;15.60;5.47;;;;;;;16.13;100.00;97351.44;5086323;28;20041;-94
2022/09/29 06:11:00;;;;;;;27.95;5.45;;;;;;;16.28;100.00;97341.41;5085596;28;20127;-95
2022/09/29 06:13:28;;;;;;;19.45;4.80;;;;;;;16.36;100.00;97332.81;5084467;28;20498;-96
2022/09/29 06:15:57;;;;;;;23.42;5.20;;;;;;;16.37;100.00;97334.53;5086303;28;20049;-95
2022/09/29 06:18:23;;;;;;;17.15;5.20;;;;;;;16.50;100.00;97362.16;5089508;28;20147;-95
2022/09/29 06:20:49;;;;;;;17.83;5.22;;;;;;;16.43;100.00;97353.72;5085708;28;20510;-95
2022/09/29 06:23:14;;;;;;;16.90;5.13;;;;;;;16.53;100.00;97372.69;5085546;28;20025;-95
2022/09/29 06:25:40;;;;;;;24.33;5.20;;;;;;;16.39;100.00;97360.28;5084573;28;20049;-94
2022/09/29 06:28:06;;;;;;;17.98;4.65;;;;;;;16.43;100.00;97344.81;5084127;28;20444;-94
2022/09/29 06:30:34;;;;;;;21.00;4.97;;;;;;;16.41;100.00;97342.22;5083890;28;20048;-94
2022/09/29 06:33:00;;;;;;;17.15;5.53;;;;;;;16.43;100.00;97348.34;5085033;28;20052;-94
2022/09/29 06:38:26;;;;;;;16.90;5.00;;;;;;;16.80;100.00;97361.75;5120145;27;20385;-95
2022/09/29 06:40:52;;;;;;;19.70;5.80;;;;;;;17.03;100.00;97392.25;5120320;28;20108;-94
2022/09/29 06:43:18;;;;;;;21.20;6.07;;;;;;;16.89;100.00;97372.78;5119338;28;20043;-94
2022/09/29 06:45:44;;;;;;;30.50;6.05;;;;;;;17.01;100.00;97407.63;5119635;28;20043;-94
2022/09/29 06:48:10;;;;;;;18.95;4.90;;;;;;;16.80;100.00;97372.47;5118921;28;20044;-93
2022/09/29 06:50:36;;;;;;;15.02;5.28;;;;;;;16.89;100.00;97396.94;5118970;28;20044;-94
2022/09/29 06:53:04;;;;;;;21.00;6.60;;;;;;;16.95;100.00;97393.81;5118014;28;20119;-95
2022/09/29 06:55:32;;;;;;;22.02;5.45;;;;;;;17.30;100.00;97387.59;5118473;28;20067;-95
2022/09/29 06:57:58;;;;;;;22.85;5.88;;;;;;;17.80;100.00;97412.38;5118108;28;20043;-94
2022/09/29 07:00:24;;;;;;;27.52;7.07;;;;;;;17.83;100.00;97375.38;5117372;28;20055;-93
2022/09/29 07:02:50;;;;;;;22.75;6.07;;;;;;;18.25;99.12;97415.97;5116714;28;20040;-93
2022/09/29 07:05:16;;;;;;;16.23;6.00;;;;;;;18.27;98.78;97389.81;5116898;28;20047;-95
2022/09/29 07:07:42;;;;;;;19.13;6.75;;;;;;;18.52;96.34;97403.13;5116314;28;20130;-95
2022/09/29 07:10:08;;;;;;;17.63;6.20;;;;;;;18.44;96.96;97374.16;5116663;28;20051;-93
2022/09/29 07:12:36;;;;;;;20.70;5.88;;;;;;;18.47;97.46;97392.72;5117716;28;20042;-93
2022/09/29 07:15:02;;;;;;;23.35;5.57;;;;;;;18.07;96.36;97374.41;5117342;28;20077;-92
2022/09/29 07:17:28;;;;;;;24.05;5.28;;;;;;;17.94;98.03;97368.31;5115830;28;20047;-92
2022/09/29 07:19:55;;;;;;;19.10;5.25;;;;;;;18.06;98.72;97391.53;5116129;28;20408;-93
2022/09/29 07:22:22;;;;;;;23.27;4.82;;;;;;;18.03;98.40;97394.47;5103604;28;20075;-94
2022/09/29 07:24:49;;;;;;;13.30;4.63;;;;;;;18.04;99.31;97388.09;5115957;28;20071;-93
2022/09/29 07:27:23;;;;;;;22.25;4.72;;;;;;;17.94;98.71;97373.69;5115632;28;20464;-90
2022/09/29 07:33:45;;;;;;;18.52;4.93;;;;;;;17.73;99.24;97368.13;5162469;27;20395;-96
2022/09/29 07:36:11;;;;;;;19.88;6.13;;;;;;;17.79;100.00;97368.50;5138370;28;20078;-93
2022/09/29 07:38:37;;;;;;;17.15;4.60;;;;;;;17.78;100.00;97361.44;5139101;28;20146;-95
2022/09/29 07:41:05;;;;;;;16.38;4.60;;;;;;;17.86;100.00;97358.16;5139059;28;20067;-95
2022/09/29 07:43:31;;;;;;;19.05;5.25;;;;;;;18.08;100.00;97367.19;5125361;28;20044;-93
2022/09/29 07:45:59;;;;;;;19.38;5.20;;;;;;;18.48;98.77;97378.31;5138235;28;20523;-96
2022/09/29 07:48:28;;;;;;;18.48;4.90;;;;;;;18.55;96.95;97355.28;5136112;28;20044;-93
2022/09/29 07:51:01;;;;;;;23.80;5.82;;;;;;;18.60;96.95;97363.81;5133225;28;20043;-93
2022/09/29 07:53:27;;;;;;;16.33;4.70;;;;;;;18.82;96.50;97379.13;5134693;28;20047;-94
2022/09/29 07:55:53;;;;;;;21.92;5.22;;;;;;;18.85;95.24;97378.00;5135112;28;20039;-95
2022/09/29 07:58:18;;;;;;;16.38;4.97;;;;;;;18.97;94.42;97400.34;5134291;28;20132;-94
2022/09/29 08:00:44;;;;;;;15.05;4.85;;;;;;;18.80;92.87;97382.88;5134990;28;20046;-94
2022/09/29 08:03:10;;;;;;;15.00;4.60;;;;;;;18.81;91.74;97382.78;5135864;28;20095;-95
2022/09/29 08:05:36;;;;;;;12.95;4.10;;;;;;;18.80;90.94;97380.19;5116009;28;20205;-93
2022/09/29 08:08:04;;;;;;;15.55;4.22;;;;;;;18.93;90.54;97390.81;5136964;28;20047;-93
2022/09/29 08:10:31;;;;;;;19.63;4.18;;;;;;;18.87;90.75;97376.03;5136070;28;20047;-93
2022/09/29 08:12:58;;;;;;;18.63;4.43;;;;;;;18.93;90.50;97386.28;5135167;28;20031;-93
2022/09/29 08:15:25;;;;;;;17.02;4.28;;;;;;;18.78;89.61;97364.19;5135268;28;20392;-94
2022/09/29 08:17:52;;;;;;;10.32;4.53;;;;;;;18.79;89.59;97378.50;5135698;28;20046;-92
2022/09/29 08:20:18;;;;;;;16.58;5.90;;;;;;;18.81;89.05;97382.78;5136457;28;20047;-92
2022/09/29 08:22:45;;;;;;;16.58;5.15;;;;;;;18.79;88.57;97384.72;5138835;28;20047;-94
2022/09/29 08:25:13;;;;;;;18.70;4.57;;;;;;;19.01;89.80;97393.72;5137048;28;20077;-94
2022/09/29 08:27:39;;;;;;;17.70;4.55;;;;;;;18.98;89.29;97369.75;5133292;28;20054;-93
2022/09/29 08:30:06;;;;;;;17.17;4.50;;;;;;;19.00;87.45;97365.94;5136473;28;20035;-95
2022/09/29 08:32:32;;;;;;;20.55;4.15;;;;;;;19.12;85.35;97371.28;5135576;28;20599;-95
2022/09/29 08:34:58;;;;;;;12.95;3.55;;;;;;;19.36;83.75;97389.91;5137769;28;20039;-96
2022/09/29 08:37:24;;;;;;;18.25;4.60;;;;;;;19.32;83.71;97362.34;5135213;28;20553;-94
2022/09/29 08:39:50;;;;;;;13.65;4.13;;;;;;;19.34;82.41;97360.38;5135713;28;20043;-93
2022/09/29 08:42:24;;;;;;;16.30;4.43;;;;;;;19.29;82.41;97371.56;5137661;28;20036;-94
2022/09/29 08:44:57;;;;;;;12.75;4.03;;;;;;;19.17;83.10;97359.13;5122922;28;20131;-94
2022/09/29 08:47:28;;;;;;;13.15;4.13;;;;;;;19.20;83.25;97387.66;5122745;28;20035;-95
2022/09/29 08:49:57;;;;;;;20.73;4.50;;;;;;;19.07;84.53;97374.38;5123032;28;20038;-94
2022/09/29 08:52:27;;;;;;;21.17;5.40;;;;;;;19.16;84.52;97378.13;5123374;28;20078;-94
2022/09/29 08:54:59;;;;;;;22.73;4.90;;;;;;;19.27;81.61;97367.28;5119763;28;20032;-96
2022/09/29 08:57:27;;;;;;;15.20;4.40;;;;;;;19.55;80.99;97367.63;5125344;28;20040;-95
2022/09/29 08:59:56;;;;;;;12.88;5.60;;;;;;;19.86;79.84;97368.53;5120340;28;20031;-95
2022/09/29 09:02:42;;;;;;;15.95;3.70;;;;;;;20.00;78.97;97370.03;5120485;28;20494;-95
2022/09/29 09:05:36;;;;;;;13.05;3.65;;;;;;;20.19;77.93;97380.03;5121945;28;20146;-94
2022/09/29 09:08:11;;;;;;;15.75;4.90;;;;;;;19.93;78.00;97363.47;5122109;28;20036;-94
2022/09/29 09:10:46;;;;;;;13.77;3.67;;;;;;;20.11;78.01;97356.44;5120079;28;20042;-96
2022/09/29 09:13:25;;;;;;;14.07;4.00;;;;;;;20.16;77.75;97358.75;5123708;28;20069;-94
2022/09/29 09:16:09;;;;;;;14.40;4.70;;;;;;;19.92;78.54;97356.38;5121973;28;20067;-94
2022/09/29 09:19:07;;;;;;;16.60;4.05;;;;;;;20.17;78.62;97374.81;5120089;28;20066;-94
2022/09/29 09:21:40;;;;;;;13.95;4.85;;;;;;;20.31;77.82;97379.81;5092046;28;20046;-93
2022/09/29 09:24:16;;;;;;;12.95;3.90;;;;;;;20.28;77.66;97390.91;5122686;28;20097;-94
2022/09/29 09:26:44;;;;;;;14.25;3.83;;;;;;;20.33;76.09;97376.13;5125060;28;20036;-94
2022/09/29 09:29:19;;;;;;;12.75;4.03;;;;;;;20.41;76.02;97369.06;5122448;28;20131;-95
2022/09/29 09:31:53;;;;;;;11.95;4.00;;;;;;;20.62;74.59;97368.13;5112111;28;20501;-96
2022/09/29 09:34:23;;;;;;;11.57;4.07;;;;;;;20.66;73.68;97365.03;5124256;28;20043;-93
2022/09/29 09:36:54;;;;;;;11.68;3.50;;;;;;;20.62;74.79;97373.53;5120234;28;20053;-94
2022/09/29 09:39:25;;;;;;;18.20;4.82;;;;;;;20.68;75.97;97383.78;5119972;28;20031;-96
2022/09/29 09:41:55;;;;;;;11.00;3.47;;;;;;;20.82;75.08;97398.75;5118279;28;20485;-95
2022/09/29 09:44:32;;;;;;;11.07;3.65;;;;;;;20.63;75.03;97386.06;5118193;28;20446;-92
2022/09/29 09:47:01;;;;;;;9.10;3.42;;;;;;;20.56;74.23;97396.53;5110625;28;20450;-94
2022/09/29 09:49:33;;;;;;;12.45;3.53;;;;;;;20.60;74.37;97399.84;5118215;28;20043;-95
2022/09/29 09:52:08;;;;;;;12.65;4.43;;;;;;;20.55;74.35;97359.72;5119150;28;20040;-93
2022/09/29 09:54:38;;;;;;;11.35;4.13;;;;;;;20.90;73.98;97367.31;5107179;28;20048;-95
2022/09/29 09:57:32;;;;;;;12.90;3.40;;;;;;;20.97;73.49;97362.25;5122848;28;20130;-96
2022/09/29 10:00:09;;;;;;;11.77;3.50;;;;;;;21.10;72.00;97370.91;5119458;28;20459;-95
2022/09/29 10:02:39;;;;;;;14.93;3.78;;;;;;;20.67;73.62;97374.84;5120711;28;20052;-94
2022/09/29 10:05:11;;;;;;;9.98;3.47;;;;;;;20.67;70.96;97339.72;5119607;28;20047;-93
2022/09/29 10:07:37;;;;;;;10.57;2.92;;;;;;;20.98;67.69;97345.03;5117159;28;20556;-93
2022/09/29 10:10:14;;;;;;;7.45;2.78;;;;;;;20.88;66.06;97377.44;5119036;28;20040;-95
2022/09/29 10:12:39;;;;;;;8.50;2.45;;;;;;;20.62;66.60;97354.63;5118413;28;20035;-94
2022/09/29 10:15:17;;;;;;;6.97;2.60;;;;;;;20.62;67.16;97354.63;5118562;28;20047;-93
2022/09/29 10:17:49;;;;;;;6.97;2.00;;;;;;;20.57;64.92;97375.78;5118182;28;20047;-91
2022/09/29 10:20:30;;;;;;;4.90;2.30;;;;;;;20.69;63.85;97366.63;5116569;28;20043;-93
2022/09/29 10:23:19;;;;;;;6.65;2.15;;;;;;;20.56;64.58;97380.34;5121614;28;20040;-94
2022/09/29 10:25:52;;;;;;;6.10;2.15;;;;;;;20.24;64.97;97375.97;5122501;28;20044;-95
2022/09/29 10:28:19;;;;;;;6.22;2.45;;;;;;;20.14;65.86;97358.88;5122264;28;20050;-95
2022/09/29 10:30:46;;;;;;;4.80;2.30;;;;;;;20.29;66.42;97384.50;5123244;28;20108;-95
2022/09/29 10:33:21;;;;;;;8.32;2.40;;;;;;;20.06;68.26;97364.97;5120262;28;20058;-95
2022/09/29 10:35:48;;;;;;;8.05;2.67;;;;;;;20.04;69.70;97366.94;5118728;28;20385;-95
2022/09/29 10:38:24;;;;;;;8.88;2.85;;;;;;;20.13;74.02;97362.56;5122954;28;20043;-96
2022/09/29 10:40:56;;;;;;;7.93;2.80;;;;;;;20.34;75.10;97367.03;5124768;28;20075;-96
2022/09/29 10:43:25;;;;;;;9.63;2.90;;;;;;;20.36;74.07;97365.06;5124596;28;20096;-96
2022/09/29 10:45:57;;;;;;;7.47;2.90;;;;;;;20.37;73.67;97367.63;5119350;28;20043;-95
2022/09/29 10:48:24;;;;;;;8.38;3.20;;;;;;;20.51;74.62;97369.06;5120356;28;20043;-95
2022/09/29 10:50:52;;;;;;;8.35;3.00;;;;;;;20.18;74.84;97363.00;5123040;28;20074;-95
2022/09/29 10:53:28;;;;;;;14.15;3.45;;;;;;;20.62;74.75;97387.03;5120136;28;20043;-95
2022/09/29 10:55:57;;;;;;;5.60;2.85;;;;;;;20.64;71.64;97369.72;5121769;28;20053;-94
2022/09/29 10:58:28;;;;;;;11.85;2.78;;;;;;;20.39;73.43;97333.25;5122871;28;20412;-94
2022/09/29 11:01:07;;;;;;;10.25;3.05;;;;;;;20.47;73.55;97333.41;5118878;28;20058;-94
2022/09/29 11:03:37;;;;;;;8.82;3.10;;;;;;;20.98;72.97;97350.41;5122149;28;20079;-96
2022/09/29 11:06:05;;;;;;;12.95;3.10;;;;;;;21.22;72.48;97327.53;5121408;28;20043;-91
2022/09/29 11:08:31;;;;;;;;;;;;;;;21.74;72.07;97360.50;5122357;28;20052;-93
2022/09/29 11:11:23;;;;;;;8.05;3.50;;;;;;;21.52;72.38;97330.06;5130312;28;19947;-96
2022/09/29 11:13:51;;;;;;;12.32;3.65;;;;;;;21.88;69.78;97332.09;5125233;28;20075;-93
2022/09/29 11:16:24;;;;;;;;;;;;;;;22.32;68.39;97368.44;5126601;28;20040;-95
2022/09/29 11:18:54;;;;;;;8.63;2.80;;;;;;;22.23;65.32;97328.72;5124409;28;19934;-94
2022/09/29 11:21:53;;;;;;;9.07;3.15;;;;;;;22.12;67.65;97318.03;5124901;28;20131;-95
2022/09/29 11:24:39;;;;;;;13.52;3.17;;;;;;;21.87;69.88;97311.47;5128001;28;20043;-95
2022/09/29 11:27:17;;;;;;;12.63;4.15;;;;;;;21.47;70.58;97308.03;5125173;28;20063;-90
2022/09/29 11:29:50;;;;;;;9.43;3.57;;;;;;;21.38;71.46;97308.84;5125397;28;20100;-94
2022/09/29 11:32:37;;;;;;;11.57;3.45;;;;;;;21.20;71.85;97310.59;5120854;28;20074;-93
2022/09/29 11:35:24;;;;;;;10.20;3.50;;;;;;;20.96;72.39;97327.25;5121187;28;20040;-93
2022/09/29 11:38:12;;;;;;;8.15;3.38;;;;;;;20.68;73.51;97314.41;5107923;28;20504;-94
2022/09/29 11:40:56;;;;;;;8.45;2.90;;;;;;;20.34;74.07;97330.09;5120354;28;20046;-93